Tiempo atmosférico en la estación meteorológica de Amorebieta--Etxano, Bizkaia (100 m.)



Fecha
DESCASC
Temp. máxima en grados centígrados (hora)
DESCASC
Temp. mínima en grados centígrados (hora)
DESCASC
Temp. media en grados centígrados
DESCASC
Racha de viento máxima en m/sg (hora)
DESCASC
Velocidad máxima media en intervalos de 10 minutos(hora)
DESCASC
Precipitaciones diarias en mm
DESCASC
Precipitaciones de 00:00 a 06:00 en mm
DESCASC
Precipitaciones de 06:00 a 12:00 en mm
DESCASC
Precipitaciones de 12:00 a 18:00 en mm
DESCASC
Precipitaciones de 18:00 a 24:00 en mm
DESCASC
18-01-2018 13.1 (15:50) 3.3 (08:00) 8.2 5 (17:10) 3.33 (17:10) 0.2 0.2 0 0 0
17-01-2018 12.6 (02:10) 5.8 (23:59) 9.2 17.78 (03:40) 9.17 (03:40) 9 2.4 4 2.6 0
16-01-2018 16.3 (15:20) 9 (00:00) 12.6 8.89 (03:30) 4.44 (04:40) 0.4 0 0 0 0.4
15-01-2018 11.6 (15:50) 4.5 (08:40) 8.1 6.11 (16:10) 2.78 (16:50) 1 1 0 0 0
14-01-2018 8.8 (15:30) 5.1 (00:00) 7 6.94 (16:20) 3.33 (16:10) 21.4 2.2 8.2 4 7
13-01-2018 9.9 (14:10) 4.1 (00:00) 7 15 (04:40) 7.22 (05:50) 8.2 0 0 1.8 6.4
12-01-2018 11.7 (15:30) 3.8 (00:00) 7.7 3.61 (15:00) 1.94 (16:30) 1 0.6 0.4 0 0
11-01-2018 6.9 (10:50) 2.7 (00:00) 4.8 8.89 (13:40) 5 (17:00) 60.4 1.4 4.4 29.6 25
10-01-2018 13 (16:40) 2.8 (00:00) 7.9 13.06 (14:40) 7.78 (17:20) 3.4 0 0 1.6 1.8
09-01-2018 10.2 (14:10) -0.3 (00:00) 4.9 11.94 (13:50) 5.28 (18:20) 1.4 0 0 1.4 0
08-01-2018 12.3 (15:20) 1.5 (00:00) 6.9 3.61 (15:30) 2.22 (15:30) 0.2 0 0 0.2 0
07-01-2018 7.9 (15:40) 2.3 (00:00) 5.1 10 (04:00) 5.83 (03:50) 12.6 12.4 0.2 0 0
06-01-2018 7.4 (00:00) 1.9 (00:00) 4.7 6.67 (03:00) 3.33 (03:10) 38 8 6 14.2 9.8
05-01-2018 16 (03:40) 7.4 (00:00) 11.7 20 (05:20) 10.28 (05:00) 18.2 0 8.4 4 5.8
04-01-2018 19 (14:10) 9.9 (06:40) 14.4 12.22 (21:40) 6.39 (21:40) 0.2 0.2 0 0 0
03-01-2018 15.7 (13:10) 11 (00:00) 13.3 9.17 (07:50) 3.61 (07:50) 3 0 0 3 0
02-01-2018 13.6 (17:10) 9.7 (00:00) 11.7 5 (04:30) 2.5 (04:30) 16.2 4.8 7.2 4 0.2
01-01-2018 14.9 (14:10) 1.9 (00:00) 8.4 20.56 (14:20) 11.67 (12:40) 18.6 0 0 12 6.6
31-12-2017 17.9 (13:40) 5.5 (00:00) 11.7 18.06 (14:50) 10.28 (14:50) 7.4 0 0 7.2 0.2
30-12-2017 19.8 (15:00) 7.8 (00:00) 13.8 10.56 (00:10) 6.11 (00:10) 0 0 0 0 0
29-12-2017 16.9 (15:10) 8.1 (00:00) 12.5 10.28 (23:50) 5.83 (23:59) 7 1.4 5.6 0 0
28-12-2017 11.1 (18:30) 5.4 (00:00) 8.3 19.44 (15:00) 10 (15:10) 23.2 8.2 4.2 2.4 8.4
27-12-2017 10.8 (04:30) 5.7 (00:00) 8.3 27.22 (12:30) 12.22 (09:20) 23.6 4.8 8 3.8 7
26-12-2017 12.3 (23:50) 3.8 (00:00) 8.1 17.78 (23:59) 11.11 (23:59) 6 5.2 0 0 0.8
25-12-2017 15.1 (14:40) 0.2 (00:00) 7.7 14.72 (20:40) 6.94 (19:30) 4.2 0 0 0 4.2
24-12-2017 14.6 (15:30) 1.5 (00:00) 8.1 2.5 (13:50) 1.67 (13:50) 0.2 0 0 0.2 0

Gráficas

Temp. máximas Temp. mínimas Temp. medias Precipitaciones Rachas de viento máximas Velocidades máximas media en intervalos de 10 minutos

Datos horarios

Fecha y hora oficial Temperatura (ºC) Velocidad del viento (km/h) Dirección del viento Racha (km/h) Dirección de racha Precipitación (mm) Presión (hPa) Tendencia (hPa) Humedad (%)
2018-01-22 23:00:00 11.5 0 Calma 4 Norte 1 -- -- 100
2018-01-22 22:00:00 11.5 2 Noroeste 3 Norte 1.8 -- -- 100
2018-01-22 21:00:00 11.5 0 Calma 8 Norte 1.6 -- -- 100
2018-01-22 20:00:00 11.5 4 Norte 7 Norte 1 -- -- 100
2018-01-22 19:00:00 11.5 0 Calma 8 Norte 1 -- -- 100
2018-01-22 18:00:00 11.8 0 Calma 4 Norte 0.4 -- -- 98
2018-01-22 17:00:00 12.1 3 Nordeste 10 Norte 0.2 -- -- 95
2018-01-22 16:00:00 12.8 9 Norte 17 Oeste 0 -- -- 88
2018-01-22 15:00:00 13.9 5 Noroeste 22 Oeste 0 -- -- 79
2018-01-22 14:00:00 14.8 3 Norte 9 Noroeste 0 -- -- 75
2018-01-22 13:00:00 13.2 4 Nordeste 9 Nordeste 0 -- -- 91
2018-01-22 12:00:00 11.4 2 Noroeste 5 Noroeste 0 -- -- 100
2018-01-22 11:00:00 10 0 Calma 4 Noroeste 0 -- -- 100
2018-01-22 10:00:00 9.2 0 Calma 4 Nordeste 0 -- -- 100
2018-01-22 09:00:00 8.7 0 Calma 8 Noroeste 0 -- -- 100
2018-01-22 08:00:00 9.2 4 Sur 8 Sudeste 0 -- -- 100
2018-01-22 07:00:00 9.3 0 Calma 8 Sudeste 0 -- -- 100
2018-01-22 06:00:00 9 3 Sudeste 6 Sudeste 0 -- -- 100
2018-01-22 05:00:00 9.1 0 Calma 4 Norte 0 -- -- 100
2018-01-22 04:00:00 9.3 0 Calma 2 Noroeste 0 -- -- 100
2018-01-22 03:00:00 9.4 0 Calma 4 Norte 0 -- -- 100
2018-01-22 02:00:00 9.6 3 Norte 6 Norte 0 -- -- 100
2018-01-22 01:00:00 10.4 0 Calma 5 Noroeste 0 -- -- 100
2018-01-22 00:00:00 10.5 0 Calma 4 Este 0 -- -- 100
2018-01-21 23:00:00 10.7 0 Calma 3 Sur 0 -- -- 100
2018-01-21 22:00:00 10.8 0 Calma 4 Este 0 -- -- 99
2018-01-21 21:00:00 11 3 Este 12 Sudeste 0 -- -- 99
2018-01-21 20:00:00 11.3 5 Sudeste 9 Sudeste 0 -- -- 98
2018-01-21 19:00:00 12.1 0 Calma 6 Este 0 -- -- 96
2018-01-21 18:00:00 13.2 2 Sur 5 Sudoeste 0 -- -- 92
2018-01-21 17:00:00 14.3 5 Noroeste 14 Oeste 0 -- -- 88
2018-01-21 16:00:00 14.2 12 Oeste 17 Noroeste 0 -- -- 89
2018-01-21 15:00:00 14 7 Noroeste 12 Noroeste 0 -- -- 93
2018-01-21 14:00:00 13.8 0 Calma 6 Sudeste 0 -- -- 94
2018-01-21 13:00:00 13.2 3 Este 7 Este 0 -- -- 96
2018-01-21 12:00:00 12.7 2 Noroeste 9 Noroeste 0 -- -- 97
2018-01-21 11:00:00 12.1 4 Nordeste 12 Noroeste 0 -- -- 99
2018-01-21 10:00:00 12 9 Oeste 25 Noroeste 0 -- -- 99
2018-01-21 09:00:00 11.7 13 Noroeste 23 Oeste 0.8 -- -- 100
2018-01-21 08:00:00 11.7 10 Noroeste 19 Oeste 2 -- -- 100
2018-01-21 07:00:00 11.8 9 Noroeste 18 Noroeste 2.6 -- -- 100
2018-01-21 06:00:00 11.8 8 Noroeste 15 Noroeste 1.6 -- -- 100
2018-01-21 05:00:00 11.9 9 Noroeste 14 Noroeste 0.8 -- -- 99
2018-01-21 04:00:00 12.1 9 Noroeste 23 Noroeste 0.2 -- -- 98
2018-01-21 03:00:00 11.9 11 Noroeste 27 Noroeste 0 -- -- 100
2018-01-21 02:00:00 11.7 12 Noroeste 17 Noroeste 0.6 -- -- 100
2018-01-21 01:00:00 11.5 6 Noroeste 14 Norte 0.4 -- -- 100
2018-01-21 00:00:00 11.3 6 Noroeste 10 Noroeste 0.4 -- -- 100
2018-01-20 23:00:00 11 2 Noroeste 5 Noroeste 0.6 -- -- 100
2018-01-20 22:00:00 10.9 3 Noroeste 5 Noroeste 1 -- -- 100
2018-01-20 21:00:00 10.9 0 Calma 3 Oeste 1.2 -- -- 100
2018-01-20 20:00:00 11 3 Nordeste 5 Nordeste 0.6 -- -- 100
2018-01-20 19:00:00 11.1 0 Calma 5 Oeste 0.2 -- -- 100
2018-01-20 18:00:00 11.2 2 Noroeste 9 Este 0 -- -- 100
2018-01-20 17:00:00 11.3 4 Sudeste 12 Este 0.6 -- -- 99
2018-01-20 16:00:00 11.3 11 Este 15 Este 0.2 -- -- 97
2018-01-20 15:00:00 10.9 5 Nordeste 16 Este 1.8 -- -- 98
2018-01-20 14:00:00 10.5 7 Este 19 Este 0.8 -- -- 96
2018-01-20 13:00:00 9.8 5 Este 14 Sudeste 0 -- -- 95
2018-01-20 12:00:00 9 6 Sudeste 14 Sudeste 0 -- -- 97
2018-01-20 11:00:00 8.2 0 Calma 5 Este 0 -- -- 100
2018-01-20 10:00:00 7.5 0 Calma 5 Sudeste 0 -- -- 100
2018-01-20 09:00:00 6.9 0 Calma 3 Sudoeste 0 -- -- 100
2018-01-20 08:00:00 7 4 Este 5 Este 0 -- -- 100
2018-01-20 07:00:00 7.2 3 Sudeste 6 Norte 0 -- -- 100
2018-01-20 06:00:00 7.3 0 Calma 5 Este 0 -- -- 100
2018-01-20 05:00:00 7.3 0 Calma 5 Sudeste 0 -- -- 100
2018-01-20 04:00:00 7.6 5 Sudeste 12 Sudeste 0 -- -- 100
2018-01-20 03:00:00 8.1 0 Calma 4 Nordeste 0 -- -- 100
2018-01-20 02:00:00 8.5 0 Calma 8 Norte 0 -- -- 99
2018-01-20 01:00:00 9 0 Calma 8 Norte 0 -- -- 99
2018-01-20 00:00:00 9.3 5 Noroeste 14 Noroeste 0.6 -- -- 99
2018-01-19 23:00:00 9.2 8 Noroeste 11 Norte 0.4 -- -- 99
2018-01-19 22:00:00 9.3 5 Noroeste 12 Oeste 3.2 -- -- 98
2018-01-19 21:00:00 9.5 5 Noroeste 21 Oeste 2 -- -- 97
2018-01-19 20:00:00 9.5 4 Noroeste 15 Noroeste 0.8 -- -- 96
2018-01-19 19:00:00 9.9 5 Noroeste 18 Oeste 0 -- -- 91
2018-01-19 18:00:00 10.3 10 Oeste 25 Oeste 0 -- -- 89
2018-01-19 17:00:00 9.8 9 Oeste 18 Oeste 0.6 -- -- 95
2018-01-19 16:00:00 10 6 Oeste 24 Oeste 0.6 -- -- 95
2018-01-19 15:00:00 10.1 11 Noroeste 27 Oeste 0 -- -- 92
2018-01-19 14:00:00 10.1 11 Oeste 27 Sudoeste 0 -- -- 89
2018-01-19 13:00:00 10.2 15 Noroeste 23 Noroeste 2 -- -- 98
2018-01-19 12:00:00 10.3 3 Norte 8 Noroeste 0.6 -- -- 100
2018-01-19 11:00:00 10 6 Oeste 12 Oeste 1 -- -- 100
2018-01-19 10:00:00 9.7 7 Noroeste 15 Noroeste 2.6 -- -- 100
2018-01-19 09:00:00 9.5 0 Calma 5 Sur 0.4 -- -- 100
2018-01-19 08:00:00 9.3 2 Sudeste 4 Sudeste 0.6 -- -- 100
2018-01-19 07:00:00 9.2 0 Calma 12 Noroeste 1 -- -- 100
2018-01-19 06:00:00 8.9 6 Noroeste 14 Noroeste 0.4 -- -- 100
2018-01-19 05:00:00 8.9 4 Sudeste 8 Este 0.4 -- -- 99
2018-01-19 04:00:00 9 2 Sudeste 7 Sudeste 0.2 -- -- 98
2018-01-19 03:00:00 8.9 3 Sur 8 Sudeste 0 -- -- 97
2018-01-19 02:00:00 9 3 Sur 9 Sudeste 0 -- -- 96
2018-01-19 01:00:00 9.1 0 Calma 4 Nordeste 0 -- -- 94
2018-01-19 00:00:00 9.1 3 Sudeste 8 Sudeste 0 -- -- 94
2018-01-18 23:00:00 9.1 0 Calma 13 Este 0 -- -- 93
2018-01-18 22:00:00 9.1 6 Este 14 Este 0 -- -- 92
2018-01-18 21:00:00 9.2 4 Sudeste 10 Sudeste 0 -- -- 91
2018-01-18 20:00:00 9.4 8 Este 10 Este 0 -- -- 92
2018-01-18 19:00:00 10.1 2 Este 7 Sudoeste 0 -- -- 88
2018-01-18 18:00:00 10.8 4 Oeste 18 Noroeste 0 -- -- 84
2018-01-18 17:00:00 12.3 11 Noroeste 17 Noroeste 0 -- -- 75
2018-01-18 16:00:00 13 9 Oeste 13 Oeste 0 -- -- 71
2018-01-18 15:00:00 12.9 7 Oeste 12 Oeste 0 -- -- 69
2018-01-18 14:00:00 11.9 8 Noroeste 15 Oeste 0 -- -- 72
2018-01-18 13:00:00 9.8 0 Calma 4 Norte 0 -- -- 85
2018-01-18 12:00:00 6.2 0 Calma 3 Este 0 -- -- 100
2018-01-18 11:00:00 4.1 0 Calma 6 Sudeste 0 -- -- 100
2018-01-18 10:00:00 3.5 4 Sudeste 12 Sudeste 0 -- -- 100
2018-01-18 09:00:00 3.3 6 Sudeste 13 Sudeste 0 -- -- 100
2018-01-18 08:00:00 3.3 4 Sudeste 8 Sudeste 0 -- -- 100
2018-01-18 07:00:00 3.6 0 Calma 6 Este 0 -- -- 100
2018-01-18 06:00:00 3.6 0 Calma 4 Este 0 -- -- 100
2018-01-18 05:00:00 3.8 0 Calma 9 Sudeste 0 -- -- 100
2018-01-18 04:00:00 4.1 4 Sudeste 9 Sudeste 0 -- -- 100
2018-01-18 03:00:00 4.7 3 Sur 6 Sudeste 0 -- -- 100
2018-01-18 02:00:00 5.3 3 Sur 6 Sudeste 0.2 -- -- 100
2018-01-18 01:00:00 5.4 2 Sudeste 5 Sudeste 0 -- -- 100
2018-01-18 00:00:00 5.8 0 Calma 4 Sur 0 -- -- 99
2018-01-17 23:00:00 6.6 3 Sudeste 8 Sudeste 0 -- -- 99
2018-01-17 22:00:00 7.7 3 Sudeste 5 Este 0 -- -- 99
2018-01-17 21:00:00 8.1 0 Calma 4 Sudeste 0 -- -- 98
2018-01-17 20:00:00 8.6 2 Este 5 Este 0 -- -- 98
2018-01-17 19:00:00 8.7 2 Este 7 Nordeste 0 -- -- 96
2018-01-17 18:00:00 8.9 3 Nordeste 28 Oeste 0 -- -- 94
2018-01-17 17:00:00 9.5 10 Oeste 38 Noroeste 0 -- -- 91
2018-01-17 16:00:00 10.1 14 Oeste 30 Noroeste 0 -- -- 87
2018-01-17 15:00:00 9.9 22 Noroeste 35 Noroeste 0.6 -- -- 91
2018-01-17 14:00:00 10.3 14 Oeste 26 Oeste 0.4 -- -- 89
2018-01-17 13:00:00 9.6 9 Noroeste 21 Oeste 1.6 -- -- 93
2018-01-17 12:00:00 10.4 12 Oeste 25 Noroeste 0 -- -- 84
2018-01-17 11:00:00 9.9 9 Oeste 25 Noroeste 0.4 -- -- 90
2018-01-17 10:00:00 8.9 11 Noroeste 28 Oeste 2.4 -- -- 95
2018-01-17 09:00:00 9.7 12 Oeste 24 Noroeste 0.2 -- -- 86
2018-01-17 08:00:00 9.5 12 Noroeste 21 Noroeste 0.4 -- -- 91
2018-01-17 07:00:00 9.9 16 Noroeste 54 Oeste 0.6 -- -- 86
2018-01-17 06:00:00 10.2 16 Oeste 38 Oeste 0.2 -- -- 88
2018-01-17 05:00:00 10.4 15 Oeste 26 Oeste 0.2 -- -- 92
2018-01-17 04:00:00 10.4 20 Noroeste 64 Noroeste 1.2 -- -- 94
2018-01-17 03:00:00 12 16 Noroeste 37 Oeste 0 -- -- 87
2018-01-17 02:00:00 12.5 22 Noroeste 41 Noroeste 0.2 -- -- 84
2018-01-17 01:00:00 11.9 27 Noroeste 48 Noroeste 0.6 -- -- 94
2018-01-17 00:00:00 11.7 9 Noroeste 14 Noroeste 0.2 -- -- 96
2018-01-16 23:00:00 11.7 0 Calma 13 Noroeste 0.2 -- -- 90
2018-01-16 22:00:00 11.9 4 Norte 7 Noroeste 0 -- -- 85
2018-01-16 21:00:00 12.3 3 Norte 6 Nordeste 0 -- -- 84
2018-01-16 20:00:00 13 0 Calma 10 Norte 0 -- -- 83
2018-01-16 19:00:00 13.6 4 Oeste 13 Oeste 0 -- -- 79
2018-01-16 18:00:00 14.1 2 Sur 9 Noroeste 0 -- -- 82
2018-01-16 17:00:00 15.3 6 Oeste 13 Oeste 0 -- -- 74
2018-01-16 16:00:00 15.3 6 Noroeste 17 Noroeste 0 -- -- 72
2018-01-16 15:00:00 15.7 7 Noroeste 13 Oeste 0 -- -- 63
2018-01-16 14:00:00 14.4 2 Este 6 Este 0 -- -- 70
2018-01-16 13:00:00 12.5 3 Este 5 Este 0 -- -- 79
2018-01-16 12:00:00 11.6 0 Calma 9 Este 0 -- -- 82
2018-01-16 11:00:00 11.1 3 Sudeste 7 Este 0 -- -- 81
2018-01-16 10:00:00 11.6 6 Noroeste 15 Noroeste 0 -- -- 72
2018-01-16 09:00:00 11.8 8 Noroeste 20 Oeste 0 -- -- 69
2018-01-16 08:00:00 12.1 9 Sudoeste 27 Oeste 0 -- -- 69
2018-01-16 07:00:00 11.8 11 Oeste 32 Sudoeste 0 -- -- 68
2018-01-16 06:00:00 12 13 Oeste 30 Sudoeste 0 -- -- 67
2018-01-16 05:00:00 12.1 13 Sudoeste 32 Sudoeste 0 -- -- 66
2018-01-16 04:00:00 12.1 14 Sudoeste 32 Sudoeste 0 -- -- 65
2018-01-16 03:00:00 12 7 Oeste 24 Sudoeste 0 -- -- 66
2018-01-16 02:00:00 11.6 9 Sudoeste 21 Sur 0 -- -- 65
2018-01-16 01:00:00 9.3 4 Este 13 Este 0 -- -- 83
2018-01-16 00:00:00 9 4 Sudeste 14 Este 0 -- -- 85
2018-01-15 23:00:00 8.5 4 Sudeste 18 Este 0 -- -- 88
2018-01-15 22:00:00 8.4 3 Sudeste 6 Este 0 -- -- 87
2018-01-15 21:00:00 8.4 3 Sudeste 9 Este 0 -- -- 81
2018-01-15 20:00:00 9 4 Sudeste 10 Este 0 -- -- 74
2018-01-15 19:00:00 9.5 4 Nordeste 13 Noroeste 0 -- -- 67
2018-01-15 18:00:00 10 3 Norte 17 Oeste 0 -- -- 65
2018-01-15 17:00:00 10.8 5 Oeste 22 Sur 0 -- -- 62
2018-01-15 16:00:00 11.5 4 Oeste 14 Este 0 -- -- 62
2018-01-15 15:00:00 11.2 5 Nordeste 14 Este 0 -- -- 67
2018-01-15 14:00:00 11 7 Nordeste 14 Este 0 -- -- 67
2018-01-15 13:00:00 9.8 0 Calma 8 Noroeste 0 -- -- 81
2018-01-15 12:00:00 8 3 Oeste 6 Oeste 0 -- -- 100
2018-01-15 11:00:00 6 2 Sur 4 Sudeste 0 -- -- 100
2018-01-15 10:00:00 5.1 3 Norte 5 Norte 0 -- -- 100
2018-01-15 09:00:00 4.7 2 Sudeste 6 Sur 0 -- -- 100
2018-01-15 08:00:00 4.8 2 Sudeste 5 Sudeste 0 -- -- 100
2018-01-15 07:00:00 5.3 4 Sudeste 6 Sudeste 0 -- -- 100
2018-01-15 06:00:00 5.7 2 Sudeste 3 Sudeste 0 -- -- 100
2018-01-15 05:00:00 5.8 0 Calma 6 Este 0 -- -- 100
2018-01-15 04:00:00 6.2 3 Este 5 Este 0 -- -- 100
2018-01-15 03:00:00 6.3 0 Calma 6 Este 0 -- -- 100
2018-01-15 02:00:00 6.3 3 Sudeste 15 Este 0.4 -- -- 100
2018-01-15 01:00:00 6.4 0 Calma 6 Sur 0.6 -- -- 100
2018-01-15 00:00:00 6.4 4 Este 9 Este 1.2 -- -- 100
2018-01-14 23:00:00 6.6 3 Este 8 Norte 0 -- -- 99
2018-01-14 22:00:00 6.8 4 Norte 16 Sudoeste 2.8 -- -- 98
2018-01-14 21:00:00 6.9 2 Nordeste 11 Norte 2.6 -- -- 99
2018-01-14 20:00:00 6.9 3 Sudeste 11 Nordeste 0.2 -- -- 99
2018-01-14 19:00:00 7 3 Sudeste 6 Este 0.2 -- -- 99
2018-01-14 18:00:00 7.1 2 Norte 12 Norte 1 -- -- 98
2018-01-14 17:00:00 7.3 10 Norte 25 Oeste 2.4 -- -- 95
2018-01-14 16:00:00 8.7 8 Oeste 15 Noroeste 0 -- -- 83
2018-01-14 15:00:00 8.7 5 Oeste 18 Oeste 0 -- -- 84
2018-01-14 14:00:00 8.3 8 Noroeste 19 Noroeste 0.2 -- -- 88
2018-01-14 13:00:00 8 5 Norte 14 Norte 0.4 -- -- 97
2018-01-14 12:00:00 6.6 3 Este 6 Nordeste 1.2 -- -- 100
2018-01-14 11:00:00 5.9 0 Calma 6 Oeste 3.2 -- -- 100
2018-01-14 10:00:00 5.6 2 Sudeste 4 Sudeste 2 -- -- 100
2018-01-14 09:00:00 5.4 0 Calma 5 Sudeste 0 -- -- 100
2018-01-14 08:00:00 5.5 0 Calma 9 Norte 0.2 -- -- 99
2018-01-14 07:00:00 5.3 2 Sudeste 12 Noroeste 1.6 -- -- 100
2018-01-14 06:00:00 5.3 5 Norte 9 Este 0.6 -- -- 99
2018-01-14 05:00:00 5.3 4 Sudeste 10 Sudeste 0 -- -- 99
2018-01-14 04:00:00 5.2 2 Este 12 Este 0.2 -- -- 99
2018-01-14 03:00:00 5.2 4 Sudeste 9 Sudeste 0 -- -- 99
2018-01-14 02:00:00 5.1 0 Calma 6 Este 0.6 -- -- 99
2018-01-14 01:00:00 5.2 4 Sudeste 9 Sur 0.8 -- -- 99
2018-01-14 00:00:00 5.2 2 Sur 5 Nordeste 1 -- -- 98
2018-01-13 23:00:00 5.3 0 Calma 15 Este 1 -- -- 97
2018-01-13 22:00:00 5.4 3 Norte 9 Este 1.2 -- -- 97
2018-01-13 21:00:00 5.5 4 Sudeste 12 Este 1.2 -- -- 96
2018-01-13 20:00:00 5.8 0 Calma 8 Este 1.2 -- -- 96
2018-01-13 19:00:00 6.2 3 Sur 10 Sudeste 0.8 -- -- 94
2018-01-13 18:00:00 6.7 3 Sur 9 Sudoeste 1 -- -- 93
2018-01-13 17:00:00 7.8 4 Sur 21 Sudoeste 0.8 -- -- 87
2018-01-13 16:00:00 9.2 5 Sudeste 19 Este 0 -- -- 67
2018-01-13 15:00:00 9.5 11 Este 19 Este 0 -- -- 65
2018-01-13 14:00:00 9.8 4 Este 26 Este 0 -- -- 61
2018-01-13 13:00:00 9.3 12 Este 24 Sudeste 0 -- -- 63
2018-01-13 12:00:00 9.2 10 Sudeste 33 Este 0 -- -- 63
2018-01-13 11:00:00 9.3 14 Sudeste 37 Este 0 -- -- 61
2018-01-13 10:00:00 9 24 Este 44 Este 0 -- -- 61
2018-01-13 09:00:00 9 21 Este 37 Este 0 -- -- 62
2018-01-13 08:00:00 8.7 10 Sudeste 40 Este 0 -- -- 64
2018-01-13 07:00:00 8.9 12 Sudeste 42 Este 0 -- -- 64
2018-01-13 06:00:00 9.2 26 Este 45 Este 0 -- -- 63
2018-01-13 05:00:00 9.6 22 Este 54 Este 0 -- -- 59
2018-01-13 04:00:00 5.2 6 Sur 16 Sudeste 0 -- -- 83
2018-01-13 03:00:00 5.5 0 Calma 9 Oeste 0 -- -- 82
2018-01-13 02:00:00 4.9 4 Oeste 10 Sudeste 0 -- -- 88
2018-01-13 01:00:00 4.1 3 Sur 8 Sudeste 0 -- -- 98
2018-01-13 00:00:00 4.4 0 Calma 4 Sudoeste 0 -- -- 97
2018-01-12 23:00:00 5.1 0 Calma 5 Noroeste 0 -- -- 96
2018-01-12 22:00:00 5.8 2 Oeste 9 Sudeste 0 -- -- 92
2018-01-12 21:00:00 6.1 3 Sudoeste 11 Este 0 -- -- 95
2018-01-12 20:00:00 6.6 4 Sudeste 12 Sudeste 0 -- -- 97
2018-01-12 19:00:00 7.3 3 Sur 5 Sur 0 -- -- 94
2018-01-12 18:00:00 8.8 3 Sudeste 7 Sudeste 0 -- -- 90
2018-01-12 17:00:00 10.4 4 Sudeste 11 Sudeste 0 -- -- 85
2018-01-12 16:00:00 11.5 5 Sudeste 12 Sudeste 0 -- -- 78
2018-01-12 15:00:00 11.3 6 Este 13 Este 0 -- -- 80
2018-01-12 14:00:00 9.5 2 Sudeste 4 Este 0 -- -- 99
2018-01-12 13:00:00 8.5 0 Calma 4 Nordeste 0 -- -- 100
2018-01-12 12:00:00 7.7 0 Calma 2 Sur 0 -- -- 100
2018-01-12 11:00:00 6.9 0 Calma 3 Sur 0 -- -- 100
2018-01-12 10:00:00 5.9 2 Sudeste 5 Sur 0 -- -- 100
2018-01-12 09:00:00 5.5 3 Sur 10 Este 0.2 -- -- 100
2018-01-12 08:00:00 4.9 0 Calma 4 Este 0.2 -- -- 100
2018-01-12 07:00:00 4.7 0 Calma 4 Sur 0 -- -- 100
2018-01-12 06:00:00 4.6 0 Calma 5 Este 0.2 -- -- 100
2018-01-12 05:00:00 4.5 5 Este 6 Este 0 -- -- 100
2018-01-12 04:00:00 4.1 0 Calma 4 Sudeste 0.4 -- -- 100
2018-01-12 03:00:00 4.1 0 Calma 6 Este 0 -- -- 100
2018-01-12 02:00:00 4.2 5 Este 8 Este 0 -- -- 100
2018-01-12 01:00:00 4.2 3 Sudeste 10 Sudeste 0 -- -- 100
2018-01-12 00:00:00 3.8 3 Sudeste 12 Sudeste 0 -- -- 100
2018-01-11 23:00:00 3.8 3 Sudeste 12 Sudeste 0.2 -- -- 100
2018-01-11 22:00:00 3.6 5 Sudeste 13 Sudeste 0.2 -- -- 100
2018-01-11 21:00:00 3.4 5 Sudeste 14 Sudeste 0.8 -- -- 100
2018-01-11 20:00:00 3 6 Sudeste 24 Este 12.2 -- -- 99
2018-01-11 19:00:00 2.9 12 Sudeste 27 Este 11.6 -- -- 99
2018-01-11 18:00:00 3 8 Sudeste 27 Este 7.4 -- -- 98
2018-01-11 17:00:00 2.9 18 Este 32 Este 3.8 -- -- 97
2018-01-11 16:00:00 3.4 3 Sudeste 13 Este 5.2 -- -- 96
2018-01-11 15:00:00 3.8 6 Oeste 15 Noroeste 6.2 -- -- 90
2018-01-11 14:00:00 4.4 9 Oeste 32 Sudoeste 4 -- -- 90
2018-01-11 13:00:00 5.5 12 Oeste 27 Oeste 3 -- -- 89
2018-01-11 12:00:00 6.2 12 Oeste 27 Oeste 2.4 -- -- 88
2018-01-11 11:00:00 6.8 11 Oeste 23 Sudoeste 0.4 -- -- 84
2018-01-11 10:00:00 6.3 6 Oeste 23 Noroeste 0.8 -- -- 84
2018-01-11 09:00:00 5.8 6 Noroeste 15 Sudoeste 0.4 -- -- 88
2018-01-11 08:00:00 5.7 8 Oeste 20 Oeste 0.4 -- -- 86
2018-01-11 07:00:00 5.9 6 Oeste 22 Oeste 0 -- -- 82
2018-01-11 06:00:00 5.7 14 Oeste 24 Sudoeste 1.2 -- -- 87
2018-01-11 05:00:00 4.4 5 Sudeste 14 Oeste 0.2 -- -- 94
2018-01-11 04:00:00 3.5 4 Norte 8 Noroeste 0 -- -- 98
2018-01-11 03:00:00 2.8 0 Calma 6 Sudeste 0 -- -- 96
2018-01-11 02:00:00 3.5 3 Sudeste 8 Noroeste 0 -- -- 94
2018-01-11 01:00:00 4.6 2 Este 18 Noroeste 0 -- -- 89
2018-01-11 00:00:00 6.8 6 Noroeste 15 Sudoeste 0 -- -- 74
2018-01-10 23:00:00 8.3 8 Oeste 23 Oeste 0 -- -- 66
2018-01-10 22:00:00 8.2 8 Noroeste 18 Noroeste 0 -- -- 68
2018-01-10 21:00:00 8.1 11 Noroeste 29 Oeste 0 -- -- 76
2018-01-10 20:00:00 8.1 6 Noroeste 35 Oeste 0.6 -- -- 86
2018-01-10 19:00:00 8.3 9 Oeste 21 Sudoeste 1.2 -- -- 86
2018-01-10 18:00:00 8.8 6 Sudoeste 45 Noroeste 1.6 -- -- 85
2018-01-10 17:00:00 12.7 10 Oeste 24 Oeste 0 -- -- 62
2018-01-10 16:00:00 12.3 17 Sudeste 44 Sur 0 -- -- 60
2018-01-10 15:00:00 12.2 21 Sur 47 Sudoeste 0 -- -- 59
2018-01-10 14:00:00 12 19 Sur 40 Sur 0 -- -- 57
2018-01-10 13:00:00 12.6 10 Este 28 Este 0 -- -- 59
2018-01-10 12:00:00 11.5 9 Sudeste 30 Este 0 -- -- 66
2018-01-10 11:00:00 9.1 10 Sudeste 23 Este 0 -- -- 76
2018-01-10 10:00:00 3.6 0 Calma 6 Sudeste 0 -- -- 99
2018-01-10 09:00:00 2.8 0 Calma 5 Este 0 -- -- 97
2018-01-10 08:00:00 3.4 2 Sudeste 7 Norte 0 -- -- 96
2018-01-10 07:00:00 3.9 3 Sur 6 Sudeste 0 -- -- 93
2018-01-10 06:00:00 4.7 3 Sur 12 Sur 0 -- -- 91
2018-01-10 05:00:00 4.1 5 Sudeste 11 Sudeste 0 -- -- 95
2018-01-10 04:00:00 3.5 5 Sudeste 6 Sudeste 0 -- -- 97
2018-01-10 03:00:00 3.7 3 Sudeste 6 Sur 0 -- -- 93
2018-01-10 02:00:00 4.9 2 Sudeste 6 Sudoeste 0 -- -- 88
2018-01-10 01:00:00 5.4 3 Sur 12 Este 0 -- -- 86
2018-01-10 00:00:00 7.1 7 Este 18 Sudeste 0 -- -- 76
2018-01-09 23:00:00 7.3 8 Sudeste 22 Este 0 -- -- 77
2018-01-09 22:00:00 8.2 4 Sudeste 24 Este 0 -- -- 71
2018-01-09 21:00:00 8.3 9 Este 33 Este 0 -- -- 71
2018-01-09 20:00:00 7.9 12 Sudeste 35 Este 0 -- -- 73
2018-01-09 19:00:00 7.4 10 Sudeste 43 Este 0 -- -- 76
2018-01-09 18:00:00 6.5 13 Este 32 Este 0.8 -- -- 84
2018-01-09 17:00:00 7.5 12 Nordeste 38 Nordeste 0.6 -- -- 80
2018-01-09 16:00:00 9 9 Este 35 Este 0 -- -- 61
2018-01-09 15:00:00 9.8 13 Sur 35 Sur 0 -- -- 52
2018-01-09 14:00:00 10 17 Sur 43 Sur 0 -- -- 48
2018-01-09 13:00:00 10 10 Sudeste 29 Este 0 -- -- 50
2018-01-09 12:00:00 9.3 9 Este 32 Sudeste 0 -- -- 55
2018-01-09 11:00:00 8.3 8 Este 23 Este 0 -- -- 56
2018-01-09 10:00:00 5.6 4 Sudoeste 25 Este 0 -- -- 71
2018-01-09 09:00:00 1.2 3 Sur 12 Sur 0 -- -- 99
2018-01-09 08:00:00 0 2 Noroeste 8 Sur 0 -- -- 100
2018-01-09 07:00:00 0 0 Calma 6 Este 0 -- -- 100
2018-01-09 06:00:00 -0.3 0 Calma 6 Sudeste 0 -- -- 100
2018-01-09 05:00:00 -0.2 4 Sur 7 Sur 0 -- -- 99
2018-01-09 04:00:00 -0.1 0 Calma 5 Este 0 -- -- 99
2018-01-09 03:00:00 0.3 0 Calma 6 Sudeste 0 -- -- 99
2018-01-09 02:00:00 0.6 5 Sudeste 10 Este 0 -- -- 98
2018-01-09 01:00:00 1.1 0 Calma 4 Sur 0 -- -- 98
2018-01-09 00:00:00 1.5 0 Calma 5 Nordeste 0 -- -- 98
2018-01-08 23:00:00 2.1 2 Sudeste 9 Sudeste 0 -- -- 97
2018-01-08 22:00:00 2.3 0 Calma 5 Sudeste 0 -- -- 96
2018-01-08 21:00:00 3.2 2 Sudeste 9 Sudeste 0 -- -- 94
2018-01-08 20:00:00 3.7 5 Sudeste 8 Sudeste 0 -- -- 93
2018-01-08 19:00:00 4.7 4 Sudeste 10 Sudeste 0 -- -- 91
2018-01-08 18:00:00 6.3 0 Calma 6 Sudeste 0 -- -- 84
2018-01-08 17:00:00 9.2 5 Sudeste 8 Sudeste 0 -- -- 73
2018-01-08 16:00:00 11.8 5 Sur 13 Sudeste 0.2 -- -- 63
2018-01-08 15:00:00 12.1 4 Sur 9 Sur 0 -- -- 56
2018-01-08 14:00:00 11.1 4 Sudoeste 9 Sudeste 0 -- -- 66
2018-01-08 13:00:00 9.2 6 Sur 10 Sur 0 -- -- 75
2018-01-08 12:00:00 6.8 3 Sudoeste 6 Sur 0 -- -- 89
2018-01-08 11:00:00 4.4 4 Este 7 Sudeste 0 -- -- 100
2018-01-08 10:00:00 3.1 2 Norte 6 Sudeste 0 -- -- 100
2018-01-08 09:00:00 2.7 2 Sudeste 3 Sudeste 0 -- -- 100
2018-01-08 08:00:00 2.9 0 Calma 4 Nordeste 0 -- -- 100
2018-01-08 07:00:00 3 3 Este 5 Sudeste 0 -- -- 100
2018-01-08 06:00:00 3.2 0 Calma 6 Sudeste 0 -- -- 100
2018-01-08 05:00:00 3.1 0 Calma 6 Sudeste 0 -- -- 100
2018-01-08 04:00:00 3 4 Sudeste 5 Sudeste 0 -- -- 100
2018-01-08 03:00:00 3.1 0 Calma 8 Sudeste 0 -- -- 100
2018-01-08 02:00:00 3.3 3 Sudeste 5 Sudeste 0 -- -- 100
2018-01-08 01:00:00 3.5 0 Calma 6 Este 0 -- -- 100
2018-01-08 00:00:00 4 3 Sudeste 9 Sudeste 0 -- -- 100
2018-01-07 23:00:00 4.4 3 Sudeste 9 Sur 0 -- -- 100
2018-01-07 22:00:00 4.6 4 Sur 7 Este 0 -- -- 100
2018-01-07 21:00:00 5.4 4 Sur 8 Sur 0 -- -- 100
2018-01-07 20:00:00 5.5 4 Sudeste 11 Este 0 -- -- 99
2018-01-07 19:00:00 6.1 3 Sur 6 Este 0 -- -- 98
2018-01-07 18:00:00 7 2 Sudeste 8 Sudeste 0 -- -- 96
2018-01-07 17:00:00 7.6 4 Sudeste 11 Este 0 -- -- 94
2018-01-07 16:00:00 7.8 3 Sudeste 7 Este 0 -- -- 95
2018-01-07 15:00:00 7.6 6 Este 14 Este 0 -- -- 94
2018-01-07 14:00:00 7.7 6 Sudeste 11 Sur 0 -- -- 94
2018-01-07 13:00:00 7 4 Sur 11 Sudeste 0 -- -- 96
2018-01-07 12:00:00 6.7 5 Sudeste 11 Sudeste 0 -- -- 97
2018-01-07 11:00:00 5.7 4 Este 13 Este 0 -- -- 100
2018-01-07 10:00:00 5.3 2 Este 13 Este 0 -- -- 100
2018-01-07 09:00:00 5.1 4 Sudeste 14 Este 0.2 -- -- 100
2018-01-07 08:00:00 5.2 4 Sudeste 16 Sudeste 0 -- -- 100
2018-01-07 07:00:00 6.2 3 Sudeste 8 Este 0 -- -- 100
2018-01-07 06:00:00 6.5 3 Noroeste 10 Oeste 0.2 -- -- 99
2018-01-07 05:00:00 6.5 8 Noroeste 35 Oeste 0.6 -- -- 97
2018-01-07 04:00:00 6.1 20 Oeste 36 Oeste 1.6 -- -- 96
2018-01-07 03:00:00 5 14 Oeste 28 Oeste 3.8 -- -- 100
2018-01-07 02:00:00 3.3 4 Este 9 Este 3.4 -- -- 100
2018-01-07 01:00:00 2.6 0 Calma 3 Este 2.8 -- -- 100
2018-01-07 00:00:00 2.3 0 Calma 9 Este 1.6 -- -- 100
2018-01-06 23:00:00 2 4 Sudeste 9 Este 1.2 -- -- 100
2018-01-06 22:00:00 2.1 3 Sudeste 8 Este 1.8 -- -- 100
2018-01-06 21:00:00 2.1 4 Este 7 Este 1.6 -- -- 100
2018-01-06 20:00:00 2.1 3 Sudeste 5 Sudeste 1.6 -- -- 99
2018-01-06 19:00:00 2.1 3 Este 9 Este 2 -- -- 99
2018-01-06 18:00:00 2.6 4 Este 13 Este 2.6 -- -- 98
2018-01-06 17:00:00 3.1 7 Este 12 Este 3.2 -- -- 97
2018-01-06 16:00:00 3.9 5 Este 17 Sudeste 2.6 -- -- 96
2018-01-06 15:00:00 4.9 5 Sudeste 17 Este 2.2 -- -- 94
2018-01-06 14:00:00 6 5 Oeste 12 Oeste 1.8 -- -- 96
2018-01-06 13:00:00 6 2 Oeste 8 Sudoeste 1.8 -- -- 96
2018-01-06 12:00:00 6 0 Calma 12 Noroeste 1.6 -- -- 99
2018-01-06 11:00:00 5.8 5 Noroeste 10 Noroeste 1 -- -- 99
2018-01-06 10:00:00 5.6 3 Norte 10 Norte 0.6 -- -- 99
2018-01-06 09:00:00 5.6 0 Calma 4 Este 0.6 -- -- 99
2018-01-06 08:00:00 5.7 0 Calma 5 Este 0.8 -- -- 99
2018-01-06 07:00:00 5.8 2 Sudeste 5 Este 1.4 -- -- 99
2018-01-06 06:00:00 5.9 2 Sudeste 9 Este 1 -- -- 99
2018-01-06 05:00:00 6.1 4 Sudeste 6 Sudeste 1.2 -- -- 98
2018-01-06 04:00:00 6.5 2 Sudeste 22 Oeste 1.6 -- -- 96
2018-01-06 03:00:00 6.8 11 Oeste 24 Oeste 2.6 -- -- 99
2018-01-06 02:00:00 7.1 0 Calma 7 Sudeste 0.8 -- -- 99
2018-01-06 01:00:00 7.3 3 Sudeste 5 Sudeste 0.8 -- -- 99
2018-01-06 00:00:00 7.4 3 Sudeste 5 Sudeste 0.4 -- -- 99
2018-01-05 23:00:00 7.7 4 Sudeste 7 Este 1.4 -- -- 99
2018-01-05 22:00:00 8.1 0 Calma 4 Nordeste 0.8 -- -- 98
2018-01-05 21:00:00 8.1 0 Calma 4 Sudeste 0.2 -- -- 97
2018-01-05 20:00:00 8.6 3 Sudoeste 24 Noroeste 1.4 -- -- 96
2018-01-05 19:00:00 9.4 0 Calma 9 Oeste 1.6 -- -- 98
2018-01-05 18:00:00 9.6 2 Oeste 9 Este 0.6 -- -- 97
2018-01-05 17:00:00 9.8 3 Sudeste 10 Sudeste 0 -- -- 97
2018-01-05 16:00:00 9.7 2 Sudeste 9 Este 0 -- -- 97
2018-01-05 15:00:00 9.4 3 Sudeste 7 Este 1.8 -- -- 96
2018-01-05 14:00:00 9.6 4 Este 11 Este 0.4 -- -- 97
2018-01-05 13:00:00 9.8 4 Sudeste 8 Sudeste 1.2 -- -- 97
2018-01-05 12:00:00 9.8 3 Sur 13 Oeste 2.6 -- -- 97
2018-01-05 11:00:00 9.8 6 Oeste 24 Noroeste 4.4 -- -- 95
2018-01-05 10:00:00 11.1 19 Noroeste 39 Oeste 1.4 -- -- 92
2018-01-05 09:00:00 15 15 Sudoeste 41 Sur 0 -- -- 60
2018-01-05 08:00:00 15.1 19 Sudoeste 49 Sur 0 -- -- 57
2018-01-05 07:00:00 15.1 16 Sudoeste 46 Sudeste 0 -- -- 56
2018-01-05 06:00:00 15.3 10 Sudeste 72 Sur 0 -- -- 56
2018-01-05 05:00:00 15.6 37 Sur 66 Sudoeste 0 -- -- 57
2018-01-05 04:00:00 15.6 13 Este 48 Sudoeste 0 -- -- 55
2018-01-05 03:00:00 15.8 23 Sur 49 Sur 0 -- -- 56
2018-01-05 02:00:00 14.7 6 Sur 24 Oeste 0 -- -- 59
2018-01-05 01:00:00 15 5 Norte 21 Norte 0 -- -- 64
2018-01-05 00:00:00 15.8 5 Sudeste 38 Sudoeste 0 -- -- 61
2018-01-04 23:00:00 17.2 19 Sudoeste 37 Sur 0 -- -- 55
2018-01-04 22:00:00 17.3 17 Sudoeste 44 Sudoeste 0 -- -- 55
2018-01-04 21:00:00 17.2 18 Sudoeste 41 Sur 0 -- -- 57
2018-01-04 20:00:00 16.8 17 Sur 42 Sur 0 -- -- 58
2018-01-04 19:00:00 16.3 13 Sur 26 Sur 0 -- -- 59
2018-01-04 18:00:00 15 7 Sur 13 Sur 0 -- -- 66
2018-01-04 17:00:00 17.2 5 Sur 22 Sur 0 -- -- 59
2018-01-04 16:00:00 18.5 4 Sur 14 Sudoeste 0 -- -- 57
2018-01-04 15:00:00 18.5 4 Sudoeste 23 Sudoeste 0 -- -- 57
2018-01-04 14:00:00 18.7 8 Oeste 24 Sur 0 -- -- 59
2018-01-04 13:00:00 17.9 12 Sudoeste 21 Sudoeste 0 -- -- 63
2018-01-04 12:00:00 16.9 9 Este 15 Este 0 -- -- 75
2018-01-04 11:00:00 14.1 4 Este 10 Sudeste 0 -- -- 97
2018-01-04 10:00:00 11.5 4 Sudeste 18 Este 0 -- -- 100
2018-01-04 09:00:00 10.8 5 Sudeste 10 Este 0 -- -- 100
2018-01-04 08:00:00 10.7 3 Noroeste 10 Sudeste 0 -- -- 100
2018-01-04 07:00:00 10.2 3 Este 7 Sur 0 -- -- 100
2018-01-04 06:00:00 10.4 3 Norte 8 Este 0 -- -- 100
2018-01-04 05:00:00 11.4 4 Sudeste 12 Sudeste 0.2 -- -- 100
2018-01-04 04:00:00 11.7 2 Sudeste 11 Sudeste 0 -- -- 100
2018-01-04 03:00:00 11.7 3 Este 4 Este 0 -- -- 100
2018-01-04 02:00:00 12.2 2 Noroeste 5 Norte 0 -- -- 100
2018-01-04 01:00:00 12.2 0 Calma 4 Sudeste 0 -- -- 100
2018-01-04 00:00:00 12.4 0 Calma 5 Sur 0 -- -- 100
2018-01-03 23:00:00 12.3 0 Calma 6 Nordeste 0 -- -- 100
2018-01-03 22:00:00 12.8 0 Calma 6 Sudeste 0 -- -- 100
2018-01-03 21:00:00 13.3 3 Sudeste 6 Este 0 -- -- 100
2018-01-03 20:00:00 13.8 4 Este 6 Sudeste 0 -- -- 100
2018-01-03 19:00:00 14.1 3 Este 6 Este 0 -- -- 100
2018-01-03 18:00:00 14.4 3 Sur 10 Este 0 -- -- 100
2018-01-03 17:00:00 14.8 5 Sur 9 Sudoeste 0.6 -- -- 99
2018-01-03 16:00:00 15 3 Noroeste 9 Noroeste 1.2 -- -- 99
2018-01-03 15:00:00 15.2 5 Norte 9 Norte 0.2 -- -- 98
2018-01-03 14:00:00 15.5 2 Este 7 Sudeste 1 -- -- 96
2018-01-03 13:00:00 15.6 0 Calma 10 Sudoeste 0 -- -- 94
2018-01-03 12:00:00 15.1 5 Oeste 13 Este 0 -- -- 93
2018-01-03 11:00:00 14.3 8 Este 13 Este 0 -- -- 96
2018-01-03 10:00:00 13.7 6 Sudeste 13 Sudeste 0 -- -- 96
2018-01-03 09:00:00 14.7 5 Norte 22 Sudoeste 0 -- -- 89
2018-01-03 08:00:00 14.9 3 Norte 33 Sudoeste 0 -- -- 87
2018-01-03 07:00:00 13.2 3 Este 19 Este 0 -- -- 95
2018-01-03 06:00:00 12.2 4 Sudeste 13 Este 0 -- -- 98
2018-01-03 05:00:00 11.5 2 Sur 10 Este 0 -- -- 99
2018-01-03 04:00:00 11.2 6 Sudeste 9 Este 0 -- -- 100
2018-01-03 03:00:00 11.3 3 Noroeste 8 Este 0 -- -- 98
2018-01-03 02:00:00 11.7 2 Norte 9 Sudeste 0 -- -- 100
2018-01-03 01:00:00 11.6 2 Sudeste 10 Sudeste 0 -- -- 100
2018-01-03 00:00:00 11.3 4 Sudeste 9 Sudeste 0 -- -- 100
2018-01-02 23:00:00 11.6 0 Calma 6 Sudeste 0 -- -- 100
2018-01-02 22:00:00 11.8 2 Sudeste 8 Este 0 -- -- 100
2018-01-02 21:00:00 12.4 4 Este 11 Sudeste 0 -- -- 100
2018-01-02 20:00:00 12.8 4 Sudeste 8 Este 0 -- -- 100
2018-01-02 19:00:00 13.1 0 Calma 5 Sudoeste 0.2 -- -- 99
2018-01-02 18:00:00 13.4 0 Calma 8 Sudeste 0 -- -- 99
2018-01-02 17:00:00 13.5 2 Sudeste 8 Este 0 -- -- 99
2018-01-02 16:00:00 13.1 0 Calma 18 Este 0 -- -- 99
2018-01-02 15:00:00 12.1 6 Sudeste 15 Este 0 -- -- 100
2018-01-02 14:00:00 11.7 5 Sudeste 12 Este 2 -- -- 100
2018-01-02 13:00:00 11.5 3 Este 10 Sudeste 2 -- -- 100
2018-01-02 12:00:00 11 3 Este 10 Este 3.6 -- -- 100
2018-01-02 11:00:00 10.7 3 Este 9 Noroeste 2.4 -- -- 100
2018-01-02 10:00:00 10.4 2 Sudeste 9 Este 0.8 -- -- 99
2018-01-02 09:00:00 10.3 5 Este 15 Norte 0 -- -- 98
2018-01-02 08:00:00 10.3 4 Noroeste 14 Sudoeste 0.2 -- -- 97
2018-01-02 07:00:00 10 5 Sudeste 13 Sudoeste 0.2 -- -- 100
2018-01-02 06:00:00 9.7 4 Sudoeste 10 Este 0 -- -- 100
2018-01-02 05:00:00 9.9 3 Sudeste 18 Este 0 -- -- 100
2018-01-02 04:00:00 9.9 4 Sudeste 12 Este 1 -- -- 100
2018-01-02 03:00:00 10 2 Noroeste 6 Este 1.8 -- -- 100
2018-01-02 02:00:00 10.1 2 Sur 9 Nordeste 0.6 -- -- 100
2018-01-02 01:00:00 10.2 3 Sudoeste 7 Norte 1.4 -- -- 99
2018-01-02 00:00:00 10.6 6 Norte 30 Oeste 0.6 -- -- 98
2018-01-01 23:00:00 10.7 17 Oeste 34 Noroeste 1 -- -- 97
2018-01-01 22:00:00 10.6 11 Noroeste 41 Oeste 0.8 -- -- 97
2018-01-01 21:00:00 10.9 18 Oeste 41 Oeste 1.2 -- -- 97
2018-01-01 20:00:00 11 22 Noroeste 62 Noroeste 2.4 -- -- 97
2018-01-01 19:00:00 11.5 35 Noroeste 60 Noroeste 0.6 -- -- 91
2018-01-01 18:00:00 11.2 19 Oeste 48 Oeste 5 -- -- 95
2018-01-01 17:00:00 10.1 12 Noroeste 29 Sudoeste 5 -- -- 95
2018-01-01 16:00:00 11.6 15 Oeste 36 Oeste 1.8 -- -- 80
2018-01-01 15:00:00 14 22 Sudoeste 74 Sudoeste 0 -- -- 61
2018-01-01 14:00:00 14.6 24 Sudoeste 62 Sur 0 -- -- 55
2018-01-01 13:00:00 13.7 27 Sudoeste 73 Sudoeste 0.2 -- -- 56
2018-01-01 12:00:00 13.3 24 Sudoeste 66 Sudoeste 0 -- -- 55
2018-01-01 11:00:00 12 21 Sur 53 Sur 0 -- -- 58
2018-01-01 10:00:00 10.7 24 Sur 46 Sudeste 0 -- -- 58
2018-01-01 09:00:00 9.1 11 Sudeste 28 Este 0 -- -- 62
2018-01-01 08:00:00 6.1 8 Este 22 Este 0 -- -- 76
2018-01-01 07:00:00 2.5 4 Sudoeste 13 Sur 0 -- -- 96
2018-01-01 06:00:00 1.9 0 Calma 8 Sudeste 0 -- -- 97
2018-01-01 05:00:00 2.6 2 Sur 6 Sur 0 -- -- 97
2018-01-01 04:00:00 3.4 0 Calma 8 Sudeste 0 -- -- 95
2018-01-01 03:00:00 3.7 0 Calma 6 Noroeste 0 -- -- 94
2018-01-01 02:00:00 4.3 3 Noroeste 10 Este 0 -- -- 93
2018-01-01 01:00:00 4.8 4 Sudeste 14 Este 0 -- -- 92
2018-01-01 00:00:00 5.5 3 Nordeste 12 Sudeste 0 -- -- 88
2017-12-31 23:00:00 7.6 4 Sudeste 16 Oeste 0 -- -- 77
2017-12-31 22:00:00 9.6 9 Oeste 21 Noroeste 0 -- -- 63
2017-12-31 21:00:00 9.1 9 Oeste 24 Noroeste 0 -- -- 71
2017-12-31 20:00:00 7.8 3 Sudoeste 8 Este 0 -- -- 96
2017-12-31 19:00:00 8.4 6 Norte 19 Noroeste 0.2 -- -- 89
2017-12-31 18:00:00 8.9 8 Oeste 29 Oeste 0.8 -- -- 84
2017-12-31 17:00:00 9 8 Oeste 34 Noroeste 2.2 -- -- 89
2017-12-31 16:00:00 10.2 18 Noroeste 35 Oeste 4 -- -- 91
2017-12-31 15:00:00 12.1 31 Noroeste 65 Noroeste 0.2 -- -- 86
2017-12-31 14:00:00 17.6 18 Sudoeste 63 Sudoeste 0 -- -- 51
2017-12-31 13:00:00 16.6 19 Sudoeste 40 Sudoeste 0 -- -- 52
2017-12-31 12:00:00 16.5 19 Sudoeste 36 Sudoeste 0 -- -- 51
2017-12-31 11:00:00 16 6 Norte 18 Sudoeste 0 -- -- 53
2017-12-31 10:00:00 14.3 5 Sudoeste 32 Sudeste 0 -- -- 59
2017-12-31 09:00:00 14.9 10 Sudeste 35 Oeste 0 -- -- 57
2017-12-31 08:00:00 15 18 Sudoeste 47 Sudoeste 0 -- -- 56
2017-12-31 07:00:00 14.5 9 Sur 42 Sur 0 -- -- 57
2017-12-31 06:00:00 12.4 4 Nordeste 18 Este 0 -- -- 67
2017-12-31 05:00:00 12.4 8 Este 17 Este 0 -- -- 68
2017-12-31 04:00:00 11.9 8 Sur 27 Sur 0 -- -- 71
2017-12-31 03:00:00 7.6 6 Este 12 Este 0 -- -- 91
2017-12-31 02:00:00 7.4 3 Sudeste 10 Sur 0 -- -- 91
2017-12-31 01:00:00 8 2 Sur 8 Sudoeste 0 -- -- 88